Archiv-/Tagesdaten

--Timestamp---	Temp	Chill	HIndex	Humid	Dewpt	 Wind 	HiWind	WindDir	Rain 	Barom	Solar	 ET  	 UV 
--------------	----	-----	------	-----	-----	------	------	-------	-----	-----	-----	-----	----
20101027 00:00	1.8	1.8	1.8	87	-0.1	3	5	202	0.0	1029.4	0	0.000	0.0
20101027 00:05	1.8	1.8	1.8	87	-0.1	3	5	202	0.0	1029.4	0	0.000	0.0
20101027 00:10	1.8	1.8	1.8	87	-0.2	3	6	202	0.0	1029.4	0	0.000	0.0
20101027 00:15	1.8	1.8	1.8	87	-0.2	3	6	202	0.0	1029.4	0	0.000	0.0
20101027 00:20	1.7	1.7	1.7	87	-0.2	3	6	202	0.0	1029.4	0	0.000	0.0
20101027 00:25	1.7	1.7	1.7	87	-0.2	3	6	202	0.0	1029.4	0	0.000	0.0
20101027 00:30	1.7	1.7	1.7	87	-0.3	2	6	202	0.0	1029.4	0	0.000	0.0
20101027 00:35	1.7	1.7	1.7	87	-0.3	0	3	202	0.0	1029.3	0	0.000	0.0
20101027 00:40	1.7	1.7	1.7	88	-0.1	0	2	202	0.0	1029.5	0	0.000	0.0
20101027 00:45	1.7	1.7	1.7	88	-0.1	0	2	202	0.0	1029.5	0	0.000	0.0
20101027 00:50	1.6	1.6	1.6	87	-0.3	0	0	-100000	0.0	1029.5	0	0.000	0.0
20101027 00:55	1.6	1.6	1.6	87	-0.4	0	0	-100000	0.0	1029.5	0	0.000	0.0
20101027 01:00	1.4	1.4	1.4	87	-0.5	0	0	-100000	0.0	1029.4	0	0.000	0.0
20101027 01:05	1.3	1.3	1.3	87	-0.6	0	0	-100000	0.0	1029.3	0	0.000	0.0
20101027 01:10	1.3	1.3	1.3	87	-0.6	0	0	-100000	0.0	1029.2	0	0.000	0.0
20101027 01:15	1.2	1.2	1.2	88	-0.6	0	0	-100000	0.0	1029.2	0	0.000	0.0
20101027 01:20	1.0	1.0	1.0	87	-0.9	0	0	-100000	0.0	1029.3	0	0.000	0.0
20101027 01:25	0.9	0.9	0.9	88	-0.9	0	0	-100000	0.0	1029.2	0	0.000	0.0
20101027 01:30	0.8	0.8	0.8	88	-1.0	0	0	-100000	0.0	1029.2	0	0.000	0.0
20101027 01:35	0.7	0.7	0.7	88	-1.0	0	0	-100000	0.0	1029.3	0	0.000	0.0
20101027 01:40	0.7	0.7	0.7	89	-0.9	0	2	202	0.0	1029.3	0	0.000	0.0
20101027 01:45	0.7	0.7	0.7	89	-0.9	0	3	202	0.0	1029.2	0	0.000	0.0
20101027 01:50	0.7	0.7	0.7	89	-0.9	2	6	202	0.0	1029.2	0	0.000	0.0
20101027 01:55	0.7	0.7	0.7	89	-0.9	3	5	202	0.0	1029.1	0	0.000	0.0
20101027 02:00	0.6	0.6	0.6	89	-1.0	3	5	202	0.0	1029.0	0	0.000	0.0
20101027 02:05	0.6	0.6	0.6	89	-1.0	2	5	202	0.0	1028.9	0	0.000	0.0
20101027 02:10	0.5	0.5	0.5	89	-1.1	0	0	-100000	0.0	1028.8	0	0.000	0.0
20101027 02:15	0.4	0.4	0.4	89	-1.2	2	5	202	0.0	1028.9	0	0.000	0.0
20101027 02:20	0.4	0.4	0.4	90	-1.1	2	5	202	0.0	1028.8	0	0.000	0.0
20101027 02:25	0.3	0.3	0.3	90	-1.2	0	3	202	0.0	1028.7	0	0.000	0.0
20101027 02:30	0.2	0.2	0.2	90	-1.2	2	5	202	0.0	1028.8	0	0.000	0.0
20101027 02:35	0.2	0.2	0.2	90	-1.3	0	3	202	0.0	1028.8	0	0.000	0.0
20101027 02:40	0.1	0.1	0.1	90	-1.3	2	5	202	0.0	1028.9	0	0.000	0.0
20101027 02:45	0.1	0.1	0.1	90	-1.4	0	3	202	0.0	1028.8	0	0.000	0.0
20101027 02:50	0.0	0.0	0.0	90	-1.4	0	3	202	0.0	1028.8	0	0.000	0.0
20101027 02:55	-0.1	-0.1	-0.1	90	-1.6	0	0	-100000	0.0	1028.9	0	0.000	0.0
20101027 03:00	-0.2	-0.2	-0.2	90	-1.7	0	0	-100000	0.0	1028.8	0	0.000	0.0
20101027 03:05	-0.3	-0.3	-0.3	90	-1.7	0	2	202	0.0	1028.9	0	0.000	0.0
20101027 03:10	-0.4	-0.4	-0.4	90	-1.8	0	0	-100000	0.0	1028.8	0	0.000	0.0
20101027 03:15	-0.4	-0.4	-0.4	90	-1.9	0	2	202	0.0	1028.8	0	0.000	0.0
20101027 03:20	-0.5	-0.5	-0.5	90	-1.9	0	0	-100000	0.0	1028.8	0	0.000	0.0
20101027 03:25	-0.6	-0.6	-0.6	90	-2.0	0	3	202	0.0	1028.7	0	0.000	0.0
20101027 03:30	-0.6	-0.6	-0.6	90	-2.0	0	0	-100000	0.0	1028.8	0	0.000	0.0
20101027 03:35	-0.7	-0.7	-0.7	90	-2.1	0	0	-100000	0.0	1028.7	0	0.000	0.0
20101027 03:40	-0.8	-0.8	-0.8	90	-2.2	0	2	202	0.0	1028.7	0	0.000	0.0
20101027 03:45	-0.8	-0.8	-0.8	90	-2.3	0	0	-100000	0.0	1028.6	0	0.000	0.0
20101027 03:50	-0.9	-0.9	-0.9	90	-2.3	0	0	-100000	0.0	1028.7	0	0.000	0.0
20101027 03:55	-0.9	-0.9	-0.9	90	-2.4	0	0	-100000	0.0	1028.8	0	0.000	0.0
20101027 04:00	-0.9	-0.9	-0.9	90	-2.4	0	0	-100000	0.0	1028.8	0	0.000	0.0
20101027 04:05	-1.0	-1.0	-1.0	91	-2.3	0	0	-100000	0.0	1028.9	0	0.000	0.0
20101027 04:10	-1.1	-1.1	-1.1	91	-2.3	0	0	-100000	0.0	1028.8	0	0.000	0.0
20101027 04:15	-1.1	-1.1	-1.1	91	-2.4	0	0	-100000	0.0	1028.9	0	0.000	0.0
20101027 04:20	-1.2	-1.2	-1.2	91	-2.4	0	0	-100000	0.0	1028.9	0	0.000	0.0
20101027 04:25	-1.2	-1.2	-1.2	91	-2.5	0	0	-100000	0.0	1028.9	0	0.000	0.0
20101027 04:30	-1.3	-1.3	-1.3	91	-2.6	0	3	202	0.0	1028.9	0	0.000	0.0
20101027 04:35	-1.3	-1.3	-1.3	91	-2.6	0	0	-100000	0.0	1028.9	0	0.000	0.0
20101027 04:40	-1.3	-1.3	-1.3	91	-2.6	0	0	-100000	0.0	1028.9	0	0.000	0.0
20101027 04:45	-1.4	-1.4	-1.4	91	-2.7	0	0	-100000	0.0	1028.9	0	0.000	0.0
20101027 04:50	-1.4	-1.4	-1.4	91	-2.7	0	5	202	0.0	1029.0	0	0.000	0.0
20101027 04:55	-1.4	-1.4	-1.4	91	-2.7	0	3	202	0.0	1028.9	0	0.000	0.0
20101027 05:00	-1.3	-1.3	-1.3	92	-2.4	3	5	202	0.0	1028.9	0	0.000	0.0
20101027 05:05	-1.1	-1.1	-1.1	91	-2.4	2	8	202	0.0	1029.1	0	0.000	0.0
20101027 05:10	-1.1	-1.1	-1.1	92	-2.2	3	8	202	0.0	1029.1	0	0.000	0.0
20101027 05:15	-1.0	-1.0	-1.0	92	-2.1	3	8	158	0.0	1029.0	0	0.000	0.0
20101027 05:20	-0.9	-0.9	-0.9	92	-2.1	2	6	158	0.0	1029.1	0	0.000	0.0
20101027 05:25	-0.9	-0.9	-0.9	92	-2.0	3	10	158	0.0	1029.0	0	0.000	0.0
20101027 05:30	-0.8	-0.8	-0.8	92	-2.0	3	8	135	0.0	1028.9	0	0.000	0.0
20101027 05:35	-0.8	-0.8	-0.8	92	-1.9	3	8	135	0.0	1028.9	0	0.000	0.0
20101027 05:40	-0.6	-0.6	-0.6	92	-1.7	5	8	135	0.0	1028.8	0	0.000	0.0
20101027 05:45	-0.5	-2.8	-0.5	91	-1.8	6	11	158	0.0	1028.7	0	0.000	0.0
20101027 05:50	-0.4	-0.4	-0.4	91	-1.7	5	8	158	0.0	1028.6	0	0.000	0.0
20101027 05:55	-0.4	-0.4	-0.4	90	-1.9	3	8	158	0.0	1028.6	0	0.000	0.0
20101027 06:00	-0.4	-0.4	-0.4	90	-1.9	3	8	158	0.0	1028.4	0	0.000	0.0
20101027 06:05	-0.4	-0.4	-0.4	90	-1.9	3	6	158	0.0	1028.6	0	0.000	0.0
20101027 06:10	-0.4	-0.4	-0.4	90	-1.9	3	6	158	0.0	1028.6	0	0.000	0.0
20101027 06:15	-0.4	-0.4	-0.4	90	-1.9	3	5	158	0.0	1028.6	0	0.000	0.0
20101027 06:20	-0.4	-0.4	-0.4	90	-1.9	3	8	158	0.0	1028.6	0	0.000	0.0
20101027 06:25	-0.5	-0.5	-0.5	89	-2.1	2	6	158	0.0	1028.6	0	0.000	0.0
20101027 06:30	-0.5	-0.5	-0.5	89	-2.1	3	8	158	0.0	1028.6	0	0.000	0.0
20101027 06:35	-0.5	-0.5	-0.5	90	-1.9	5	10	158	0.0	1028.6	0	0.000	0.0
20101027 06:40	-0.4	-0.4	-0.4	89	-2.0	5	10	158	0.0	1028.5	0	0.000	0.0
20101027 06:45	-0.4	-0.4	-0.4	89	-2.0	3	6	158	0.0	1028.5	0	0.000	0.0
20101027 06:50	-0.4	-0.4	-0.4	89	-2.0	3	6	158	0.0	1028.5	0	0.000	0.0
20101027 06:55	-0.4	-0.4	-0.4	89	-2.0	3	5	158	0.0	1028.5	0	0.000	0.0
20101027 07:00	-0.4	-0.4	-0.4	88	-2.2	2	5	158	0.0	1028.5	0	0.000	0.0
20101027 07:05	-0.6	-0.6	-0.6	88	-2.3	2	5	158	0.0	1028.6	0	0.000	0.0
20101027 07:10	-0.6	-0.6	-0.6	88	-2.3	0	5	158	0.0	1028.6	0	0.000	0.0
20101027 07:15	-0.7	-0.7	-0.7	88	-2.4	0	3	158	0.0	1028.6	0	0.000	0.0
20101027 07:20	-0.7	-0.7	-0.7	88	-2.5	0	0	-100000	0.0	1028.7	0	0.000	0.0
20101027 07:25	-0.8	-0.8	-0.8	88	-2.5	0	2	158	0.0	1028.7	0	0.000	0.0
20101027 07:30	-0.9	-0.9	-0.9	88	-2.6	0	3	158	0.0	1028.8	0	0.000	0.0
20101027 07:35	-0.9	-0.9	-0.9	89	-2.5	2	5	158	0.0	1028.8	0	0.000	0.0
20101027 07:40	-0.9	-0.9	-0.9	89	-2.5	3	6	158	0.0	1028.8	0	0.000	0.0
20101027 07:45	-0.9	-0.9	-0.9	89	-2.5	3	6	158	0.0	1028.9	0	0.000	0.0
20101027 07:50	-0.9	-0.9	-0.9	89	-2.5	2	5	158	0.0	1028.9	0	0.000	0.0
20101027 07:55	-0.9	-0.9	-0.9	89	-2.5	2	6	158	0.0	1028.9	1	0.000	0.0
20101027 08:00	-0.9	-0.9	-0.9	89	-2.5	2	6	158	0.0	1029.0	5	0.000	0.0
20101027 08:05	-0.9	-0.9	-0.9	89	-2.5	2	5	158	0.0	1029.0	7	0.000	0.0
20101027 08:10	-0.9	-0.9	-0.9	89	-2.5	3	6	158	0.0	1029.0	9	0.000	0.0
20101027 08:15	-0.9	-0.9	-0.9	89	-2.5	3	6	158	0.0	1029.0	11	0.000	0.0
20101027 08:20	-0.9	-0.9	-0.9	89	-2.5	3	6	158	0.0	1029.1	12	0.000	0.0
20101027 08:25	-0.9	-0.9	-0.9	89	-2.5	2	5	158	0.0	1029.1	14	0.000	0.0
20101027 08:30	-0.8	-0.8	-0.8	89	-2.4	0	3	158	0.0	1029.0	16	0.000	0.0
20101027 08:35	-0.8	-0.8	-0.8	89	-2.4	2	5	158	0.0	1028.9	17	0.000	0.0
20101027 08:40	-0.8	-0.8	-0.8	90	-2.2	0	3	158	0.0	1029.0	18	0.000	0.0
20101027 08:45	-0.7	-0.7	-0.7	90	-2.2	3	6	158	0.0	1029.0	19	0.000	0.0
20101027 08:50	-0.6	-0.6	-0.6	90	-2.0	2	3	158	0.0	1028.9	19	0.000	0.0
20101027 08:55	-0.5	-0.5	-0.5	89	-2.1	2	5	158	0.0	1028.9	21	0.000	0.0
20101027 09:00	-0.4	-0.4	-0.4	89	-2.0	2	8	158	0.0	1028.9	22	0.000	0.0
20101027 09:05	-0.3	-0.3	-0.3	89	-1.9	2	6	158	0.0	1029.3	23	0.000	0.0
20101027 09:10	-0.2	-0.2	-0.2	89	-1.8	2	8	158	0.0	1029.1	25	0.000	0.0
20101027 09:15	-0.1	-0.1	-0.1	89	-1.7	2	6	158	0.0	1029.1	25	0.000	0.0
20101027 09:20	0.0	0.0	0.0	95	-0.7	5	8	158	0.0	1029.0	25	0.000	0.0
20101027 09:25	0.2	0.2	0.2	88	-1.6	5	8	158	0.0	1028.8	26	0.000	0.0
20101027 09:30	0.3	0.3	0.3	88	-1.5	5	11	158	0.0	1028.8	26	0.000	0.0
20101027 09:35	0.4	0.4	0.4	88	-1.3	3	8	158	0.0	1028.9	26	0.000	0.0
20101027 09:40	0.6	0.6	0.6	88	-1.1	2	5	158	0.0	1028.9	28	0.000	0.0
20101027 09:45	0.8	0.8	0.8	87	-1.1	2	6	158	0.0	1029.0	28	0.000	0.0
20101027 09:50	0.9	0.9	0.9	87	-1.0	3	6	158	0.0	1028.9	30	0.000	0.0
20101027 09:55	1.1	1.1	1.1	86	-1.0	3	6	158	0.0	1028.9	30	0.000	0.0
20101027 10:00	1.2	1.2	1.2	86	-0.9	2	5	158	0.0	1028.9	30	0.025	0.0
20101027 10:05	1.3	1.3	1.3	86	-0.8	2	3	158	0.0	1028.9	31	0.000	0.0
20101027 10:10	1.3	1.3	1.3	86	-0.7	2	5	158	0.0	1028.9	769	0.000	0.0
20101027 10:15	1.4	1.4	1.4	85	-0.8	2	3	158	0.0	1028.7	32	0.000	0.0
20101027 10:20	1.6	1.6	1.6	85	-0.6	3	6	158	0.0	1028.8	32	0.000	0.0
20101027 10:25	1.8	1.8	1.8	85	-0.5	5	8	158	0.0	1028.9	33	0.000	0.0
20101027 10:30	2.1	2.1	2.1	84	-0.4	3	8	158	0.0	1028.8	33	0.000	0.0
20101027 10:35	2.3	2.3	2.3	83	-0.3	5	11	158	0.0	1028.8	33	0.000	0.0
20101027 10:40	2.5	2.5	2.5	82	-0.3	5	10	158	0.0	1028.7	35	0.000	0.0
20101027 10:45	2.7	2.7	2.7	82	-0.1	5	8	158	0.0	1028.6	35	0.000	0.0
20101027 10:50	2.8	2.8	2.8	82	0.0	2	5	158	0.0	1028.6	35	0.000	0.0
20101027 10:55	2.9	2.9	2.9	82	0.1	0	3	158	0.0	1028.6	35	0.000	0.0
20101027 11:00	3.0	3.0	3.0	81	0.1	5	10	158	0.0	1028.6	37	0.025	0.0
20101027 11:05	3.2	1.5	3.2	81	0.3	6	10	135	0.0	1028.7	37	0.000	0.0
20101027 11:10	3.4	3.4	3.4	80	0.3	5	10	135	0.0	1028.6	38	0.000	0.0
20101027 11:15	3.6	3.6	3.6	80	0.4	5	8	135	0.0	1028.6	39	0.000	0.0
20101027 11:20	3.7	3.7	3.7	80	0.6	3	10	135	0.0	1028.5	39	0.000	0.0
20101027 11:25	3.8	3.8	3.8	79	0.5	5	8	90	0.0	1028.4	40	0.000	0.0
20101027 11:30	4.0	4.0	4.0	79	0.7	3	8	135	0.0	1028.4	43	0.000	0.2
20101027 11:35	4.2	4.2	4.2	78	0.7	5	10	112	0.0	1028.5	401	0.000	1.2
20101027 11:40	4.3	4.3	4.3	78	0.8	2	6	112	0.0	1028.4	408	0.000	1.5
20101027 11:45	4.5	4.5	4.5	77	0.8	3	6	112	0.0	1028.3	413	0.000	1.5
20101027 11:50	4.7	4.7	4.7	76	0.9	5	10	112	0.0	1028.2	419	0.000	1.6
20101027 11:55	4.9	4.9	4.9	75	0.9	5	8	135	0.0	1028.2	418	0.000	1.6
20101027 12:00	5.1	3.7	5.1	73	0.6	6	11	112	0.2	1028.1	427	0.102	1.7
20101027 12:05	5.2	3.9	5.2	73	0.8	6	14	135	0.0	1028.1	433	0.000	1.7
20101027 12:10	5.3	3.5	5.3	72	0.7	8	16	112	0.0	1028.1	436	0.000	1.7
20101027 12:15	5.6	4.2	5.6	72	0.9	6	10	112	0.0	1028.0	440	0.000	1.8
20101027 12:20	5.8	5.8	5.8	70	0.7	5	10	202	0.0	1028.0	444	0.000	1.8
20101027 12:25	6.0	6.0	6.0	71	1.1	5	11	135	0.0	1027.9	445	0.000	1.8
20101027 12:30	6.1	4.1	6.1	69	0.9	10	18	135	0.0	1027.9	448	0.000	1.8
20101027 12:35	6.2	5.0	6.2	68	0.8	6	11	135	0.0	1027.8	449	0.000	1.8
20101027 12:40	6.3	4.6	6.3	68	0.8	8	16	112	0.0	1027.8	452	0.000	1.9
20101027 12:45	6.4	4.8	6.4	68	0.9	8	14	112	0.0	1027.8	453	0.000	1.9
20101027 12:50	6.4	5.2	6.4	67	0.7	6	13	112	0.0	1027.7	452	0.000	1.9
20101027 12:55	6.5	4.9	6.5	66	0.6	8	18	135	0.0	1027.8	453	0.000	1.9
20101027 13:00	6.6	5.0	6.6	65	0.5	8	16	135	0.0	1027.7	452	0.203	1.9
20101027 13:05	6.8	5.7	6.8	64	0.4	6	14	158	0.0	1027.8	452	0.000	1.9
20101027 13:10	6.8	5.7	6.8	65	0.7	6	14	135	0.0	1027.7	452	0.000	1.9
20101027 13:15	7.0	7.0	7.0	65	0.9	3	10	135	0.0	1027.6	451	0.000	1.9
20101027 13:20	7.2	7.2	7.2	65	1.0	3	11	112	0.0	1027.5	451	0.000	1.9
20101027 13:25	7.3	7.3	7.3	63	0.7	3	10	135	0.0	1027.5	450	0.000	1.9
20101027 13:30	7.4	7.4	7.4	63	0.8	3	10	112	0.0	1027.4	451	0.000	1.8
20101027 13:35	7.3	6.2	7.3	63	0.7	6	14	112	0.0	1027.4	451	0.000	1.8
20101027 13:40	7.2	7.2	7.2	63	0.7	5	10	112	0.0	1027.4	446	0.000	1.8
20101027 13:45	7.2	6.2	7.2	62	0.4	6	14	68	0.0	1027.4	446	0.000	1.8
20101027 13:50	7.2	7.2	7.2	61	0.2	5	10	90	0.0	1027.4	437	0.000	1.8
20101027 13:55	7.4	6.4	7.4	61	0.4	6	14	135	0.0	1027.3	434	0.000	1.7
20101027 14:00	7.6	6.1	7.6	60	0.3	8	13	112	0.0	1027.2	427	0.203	1.7
20101027 14:05	7.6	7.6	7.6	60	0.3	5	10	90	0.0	1027.2	425	0.000	1.7
20101027 14:10	7.7	7.7	7.7	59	0.2	5	8	112	0.0	1027.2	418	0.000	1.6
20101027 14:15	7.8	7.8	7.8	59	0.3	5	10	135	0.0	1027.1	411	0.000	1.6
20101027 14:20	7.8	7.8	7.8	57	-0.2	3	8	135	0.0	1027.1	409	0.000	1.6
20101027 14:25	7.8	7.8	7.8	60	0.5	3	6	45	0.0	1027.0	402	0.000	1.5
20101027 14:30	7.9	7.9	7.9	59	0.4	3	8	90	0.0	1026.9	394	0.000	1.5
20101027 14:35	8.0	8.0	8.0	55	-0.5	5	8	112	0.0	1026.9	388	0.000	1.4
20101027 14:40	7.9	7.9	7.9	56	-0.3	2	5	112	0.0	1026.9	384	0.000	1.4
20101027 14:45	8.0	8.0	8.0	57	0.0	3	6	112	0.0	1026.8	379	0.000	1.3
20101027 14:50	8.2	8.2	8.2	57	0.2	5	10	135	0.0	1026.7	376	0.000	1.3
20101027 14:55	8.3	8.3	8.3	56	0.0	2	8	112	0.0	1026.6	371	0.000	1.3
20101027 15:00	8.4	8.4	8.4	54	-0.4	3	8	135	0.0	1026.6	362	0.178	1.2
20101027 15:05	8.6	8.6	8.6	55	0.1	5	8	135	0.0	1026.7	355	0.000	1.2
20101027 15:10	8.7	8.7	8.7	55	0.1	2	5	135	0.0	1026.6	349	0.000	1.1
20101027 15:15	8.7	8.7	8.7	53	-0.4	3	6	135	0.0	1026.6	339	0.000	1.1
20101027 15:20	8.9	8.9	8.9	55	0.3	3	8	180	0.0	1026.6	325	0.000	1.0
20101027 15:25	9.1	9.1	9.1	54	0.3	5	11	158	0.0	1026.6	317	0.000	1.0
20101027 15:30	9.0	8.2	9.0	53	-0.1	6	11	135	0.0	1026.5	313	0.000	0.9
20101027 15:35	8.8	8.8	8.8	55	0.2	3	8	112	0.0	1026.5	305	0.000	0.9
20101027 15:40	8.9	8.9	8.9	54	0.1	2	6	112	0.0	1026.5	295	0.000	0.8
20101027 15:45	8.9	8.9	8.9	53	-0.1	2	3	112	0.0	1026.4	287	0.000	0.8
20101027 15:50	9.0	9.0	9.0	55	0.4	3	8	90	0.0	1026.3	275	0.000	0.7
20101027 15:55	8.9	8.9	8.9	55	0.3	3	6	90	0.0	1026.4	260	0.000	0.7
20101027 16:00	9.0	9.0	9.0	54	0.2	3	8	112	0.0	1026.4	253	0.152	0.6
20101027 16:05	9.2	9.2	9.2	54	0.4	2	6	112	0.0	1026.3	243	0.000	0.6
20101027 16:10	9.3	9.3	9.3	53	0.2	3	6	112	0.0	1026.3	233	0.000	0.5
20101027 16:15	9.1	9.1	9.1	54	0.3	5	8	112	0.0	1026.3	202	0.000	0.5
20101027 16:20	8.8	8.8	8.8	55	0.3	2	5	112	0.0	1026.2	181	0.000	0.3
20101027 16:25	8.7	8.7	8.7	56	0.4	2	5	112	0.0	1026.2	182	0.000	0.0
20101027 16:30	8.7	8.7	8.7	57	0.6	2	3	112	0.0	1026.2	148	0.000	0.0
20101027 16:35	8.6	8.6	8.6	57	0.6	0	2	112	0.0	1026.1	107	0.000	0.0
20101027 16:40	8.5	8.5	8.5	57	0.5	2	6	112	0.0	1026.2	138	0.000	0.0
20101027 16:45	8.4	8.4	8.4	58	0.7	3	6	112	0.0	1026.1	133	0.000	0.0
20101027 16:50	8.4	8.4	8.4	57	0.4	2	6	112	0.0	1026.0	119	0.000	0.0
20101027 16:55	8.4	8.4	8.4	58	0.6	2	6	112	0.0	1026.0	113	0.000	0.0
20101027 17:00	8.4	8.4	8.4	60	1.1	3	10	112	0.0	1026.0	95	0.076	0.0
20101027 17:05	8.2	8.2	8.2	60	0.9	3	8	112	0.0	1025.8	75	0.000	0.0
20101027 17:10	8.0	8.0	8.0	59	0.5	5	8	135	0.0	1025.8	57	0.000	0.0
20101027 17:15	7.8	7.8	7.8	60	0.6	5	10	135	0.0	1025.9	39	0.000	0.0
20101027 17:20	7.7	7.7	7.7	61	0.6	3	10	158	0.0	1025.8	31	0.000	0.0
20101027 17:25	7.6	6.6	7.6	62	0.8	6	14	158	0.0	1025.6	27	0.000	0.0
20101027 17:30	7.6	7.6	7.6	62	0.7	5	13	158	0.0	1025.7	24	0.000	0.0
20101027 17:35	7.4	7.4	7.4	63	0.9	2	8	158	0.0	1025.8	20	0.000	0.0
20101027 17:40	7.2	7.2	7.2	63	0.7	2	6	158	0.0	1025.7	16	0.000	0.0
20101027 17:45	7.2	7.2	7.2	63	0.6	2	5	158	0.0	1025.7	12	0.000	0.0
20101027 17:50	7.1	7.1	7.1	64	0.7	0	3	158	0.0	1025.9	9	0.000	0.0
20101027 17:55	6.9	6.9	6.9	65	0.8	0	5	158	0.0	1025.9	6	0.000	0.0
20101027 18:00	6.7	6.7	6.7	66	0.8	0	0	-100000	0.0	1026.0	4	0.025	0.0
20101027 18:05	6.4	6.4	6.4	68	0.9	0	0	-100000	0.0	1026.0	0	0.000	0.0
20101027 18:10	6.1	6.1	6.1	70	1.1	0	0	-100000	0.0	1026.1	0	0.000	0.0
20101027 18:15	5.8	5.8	5.8	71	1.0	0	0	-100000	0.0	1026.1	0	0.000	0.0
20101027 18:20	5.6	5.6	5.6	73	1.1	0	0	-100000	0.0	1026.2	0	0.000	0.0
20101027 18:25	5.4	5.4	5.4	75	1.3	0	2	158	0.0	1026.2	0	0.000	0.0
20101027 18:30	5.3	5.3	5.3	75	1.2	0	2	158	0.0	1026.2	0	0.000	0.0
20101027 18:35	5.1	5.1	5.1	76	1.2	0	0	-100000	0.0	1026.2	0	0.000	0.0
20101027 18:40	5.0	5.0	5.0	76	1.1	0	0	-100000	0.0	1026.1	0	0.000	0.0
20101027 18:45	4.8	4.8	4.8	76	1.0	0	3	158	0.0	1026.2	0	0.000	0.0
20101027 18:50	4.7	4.7	4.7	76	0.9	0	2	158	0.0	1026.2	0	0.000	0.0
20101027 18:55	4.7	4.7	4.7	76	0.8	0	2	158	0.0	1026.4	0	0.000	0.0
20101027 19:00	4.6	4.6	4.6	77	0.9	0	2	158	0.0	1026.4	0	0.000	0.0
20101027 19:05	4.4	4.4	4.4	77	0.8	0	0	-100000	0.0	1026.4	0	0.000	0.0
20101027 19:10	4.3	4.3	4.3	78	0.8	0	0	-100000	0.0	1026.4	0	0.000	0.0
20101027 19:15	4.2	4.2	4.2	79	0.9	0	0	-100000	0.0	1026.5	0	0.000	0.0
20101027 19:20	4.1	4.1	4.1	79	0.7	0	0	-100000	0.0	1026.7	0	0.000	0.0
20101027 19:25	3.9	3.9	3.9	79	0.6	0	0	-100000	0.0	1026.7	0	0.000	0.0
20101027 19:30	3.8	3.8	3.8	80	0.7	0	2	158	0.0	1026.6	0	0.000	0.0
20101027 19:35	3.8	3.8	3.8	80	0.6	2	6	158	0.0	1026.6	0	0.000	0.0
20101027 19:40	3.9	3.9	3.9	80	0.8	3	6	158	0.0	1026.6	0	0.000	0.0
20101027 19:45	3.9	3.9	3.9	80	0.8	0	3	158	0.0	1026.6	0	0.000	0.0
20101027 19:50	3.9	3.9	3.9	81	1.0	0	3	158	0.0	1026.6	0	0.000	0.0
20101027 19:55	3.9	3.9	3.9	80	0.8	0	5	158	0.0	1026.5	0	0.000	0.0
20101027 20:00	3.9	3.9	3.9	81	1.0	0	2	158	0.0	1026.6	0	0.000	0.0
20101027 20:05	3.9	3.9	3.9	81	1.0	2	5	158	0.0	1026.3	0	0.000	0.0
20101027 20:10	3.9	3.9	3.9	81	1.0	0	3	158	0.0	1026.3	0	0.000	0.0
20101027 20:15	3.9	3.9	3.9	81	1.0	0	3	158	0.0	1026.4	0	0.000	0.0
20101027 20:20	3.9	3.9	3.9	81	1.0	0	2	158	0.0	1026.3	0	0.000	0.0
20101027 20:25	3.9	3.9	3.9	82	1.2	0	3	158	0.0	1026.3	0	0.000	0.0
20101027 20:30	3.9	3.9	3.9	82	1.2	2	6	158	0.0	1026.3	0	0.000	0.0
20101027 20:35	3.9	3.9	3.9	82	1.2	0	3	158	0.0	1026.3	0	0.000	0.0
20101027 20:40	3.8	3.8	3.8	82	1.0	2	5	158	0.0	1026.3	0	0.000	0.0
20101027 20:45	3.8	3.8	3.8	82	1.0	2	5	158	0.0	1026.3	0	0.000	0.0
20101027 20:50	3.7	3.7	3.7	83	1.1	0	2	158	0.0	1026.4	0	0.000	0.0
20101027 20:55	3.6	3.6	3.6	83	0.9	0	0	-100000	0.0	1026.5	0	0.000	0.0
20101027 21:00	3.4	3.4	3.4	83	0.8	0	3	158	0.0	1026.4	0	0.000	0.0
20101027 21:05	3.3	3.3	3.3	83	0.7	0	2	158	0.0	1026.2	0	0.000	0.0
20101027 21:10	3.2	3.2	3.2	84	0.8	0	0	-100000	0.0	1026.2	0	0.000	0.0
20101027 21:15	3.1	3.1	3.1	84	0.6	0	2	158	0.0	1026.1	0	0.000	0.0
20101027 21:20	2.9	2.9	2.9	84	0.5	0	0	-100000	0.0	1026.3	0	0.000	0.0
20101027 21:25	2.8	2.8	2.8	85	0.6	0	0	-100000	0.0	1026.3	0	0.000	0.0
20101027 21:30	2.7	2.7	2.7	85	0.5	0	3	158	0.0	1026.3	0	0.000	0.0
20101027 21:35	2.6	2.6	2.6	85	0.3	0	3	158	0.0	1026.2	0	0.000	0.0
20101027 21:40	2.6	-100000.0	2.6	86	0.5	-100000	0	-100000	0.0	1026.1	0	0.000	0.0
20101027 21:45	2.6	2.6	2.6	86	0.5	0	5	158	0.0	1026.1	0	0.000	0.0
20101027 21:50	2.5	2.5	2.5	86	0.4	0	0	-100000	0.0	1026.0	0	0.000	0.0
20101027 21:55	2.4	-100000.0	2.4	86	0.3	-100000	0	-100000	0.0	1026.1	-100000	0.000	0.0
20101027 22:00	2.4	2.4	2.4	87	0.4	2	3	158	0.0	1026.1	0	0.000	0.0
20101027 22:05	2.3	2.3	2.3	87	0.4	3	3	158	0.0	1026.0	0	0.000	0.0
20101027 22:10	2.3	2.3	2.3	87	0.3	0	0	-100000	0.0	1025.9	-100000	0.000	0.0
20101027 22:15	2.2	2.2	2.2	86	0.1	2	5	158	0.0	1025.9	0	0.000	0.0
20101027 22:20	2.1	2.1	2.1	87	0.1	2	5	158	0.0	1025.9	0	0.000	0.0
20101027 22:25	2.1	2.1	2.1	87	0.1	3	6	158	0.0	1026.0	0	0.000	0.0
20101027 22:35	2.0	2.0	2.0	87	0.1	3	3	158	0.0	1026.0	592	0.000	0.0
20101027 22:40	2.0	2.0	2.0	87	0.1	3	5	158	0.0	1026.0	0	0.000	0.0
20101027 22:45	1.9	1.9	1.9	87	0.0	3	6	158	0.0	1025.9	0	0.000	0.0
20101027 22:50	1.9	1.9	1.9	87	0.0	3	8	158	0.0	1026.0	0	0.000	0.0
20101027 22:55	1.9	1.9	1.9	87	0.0	5	8	158	0.0	1025.9	0	0.000	0.0
20101027 23:00	2.0	2.0	2.0	86	-0.1	5	10	158	0.0	1026.0	0	0.000	0.0
20101027 23:05	2.1	2.1	2.1	86	-0.0	3	8	158	0.0	1025.7	0	0.000	0.0
20101027 23:10	2.0	2.0	2.0	85	-0.3	2	6	158	0.0	1025.8	0	0.000	0.0
20101027 23:15	1.9	1.9	1.9	85	-0.3	3	8	158	0.0	1025.8	0	0.000	0.0
20101027 23:20	1.9	1.9	1.9	85	-0.4	3	6	158	0.0	1025.7	0	0.000	0.0
20101027 23:25	1.8	1.8	1.8	85	-0.4	3	6	158	0.0	1025.7	0	0.000	0.0
20101027 23:30	1.8	1.8	1.8	85	-0.4	3	5	158	0.0	1025.7	0	0.000	0.0
20101027 23:35	1.7	1.7	1.7	85	-0.5	2	6	158	0.0	1025.7	0	0.000	0.0
20101027 23:40	1.7	1.7	1.7	85	-0.6	3	5	158	0.0	1025.8	0	0.000	0.0
20101027 23:45	1.6	1.6	1.6	86	-0.5	0	3	158	0.0	1025.8	0	0.000	0.0
20101027 23:50	1.5	1.5	1.5	86	-0.6	3	6	158	0.0	1025.8	0	0.000	0.0
20101027 23:55	1.3	1.3	1.3	86	-0.7	3	6	158	0.0	1025.8	0	0.000	0.0



Please note the license to use and transfer of this data:
http://creativecommons.org/licenses/by-nc-sa/3.0/deed.en

Bitte beachten sie die Lizenz zur Verwertung und Weitergabe der Daten:
http://creativecommons.org/licenses/by-nc-sa/3.0/deed.de

zurück zur Übersicht der Archivdaten (Monats und Tagesdaten)

Cookies helfen bei der Bereitstellung von Inhalten. Durch die Nutzung dieser Seiten erklärst du dich damit einverstanden, dass Cookies auf deinem Rechner gespeichert werden. Weitere Information